createdAt,value
2022-10-14T00:00:21.598Z,1015.63
2022-10-14T00:02:37.178Z,1015.60
2022-10-14T00:04:55.265Z,1015.61
2022-10-14T00:07:08.855Z,1015.63
2022-10-14T00:09:26.962Z,1015.63
2022-10-14T00:11:42.537Z,1015.62
2022-10-14T00:13:58.139Z,1015.63
2022-10-14T00:16:16.207Z,1015.62
2022-10-14T00:18:31.826Z,1015.60
2022-10-14T00:20:49.939Z,1015.57
2022-10-14T00:23:06.485Z,1015.60
2022-10-14T00:25:22.071Z,1015.61
2022-10-14T00:27:37.664Z,1015.63
2022-10-14T00:29:55.743Z,1015.60
2022-10-14T00:32:11.343Z,1015.56
2022-10-14T00:34:30.683Z,1015.55
2022-10-14T00:36:48.408Z,1015.57
2022-10-14T00:39:08.429Z,1015.54
2022-10-14T00:41:26.376Z,1015.56
2022-10-14T00:43:44.131Z,1015.53
2022-10-14T00:46:02.162Z,1015.55
2022-10-14T00:48:20.067Z,1015.53
2022-10-14T00:50:38.341Z,1015.56
2022-10-14T00:52:56.793Z,1015.60
2022-10-14T00:55:14.749Z,1015.62
2022-10-14T00:57:35.204Z,1015.63
2022-10-14T00:59:50.789Z,1015.64
2022-10-14T01:02:06.396Z,1015.63
2022-10-14T01:04:24.485Z,1015.57
2022-10-14T01:06:42.692Z,1015.56
2022-10-14T01:08:58.237Z,1015.58
2022-10-14T01:11:14.115Z,1015.57
2022-10-14T01:13:27.702Z,1015.48
2022-10-14T01:15:43.335Z,1015.51
2022-10-14T01:17:58.915Z,1015.47
2022-10-14T01:20:16.953Z,1015.44
2022-10-14T01:22:35.043Z,1015.43
2022-10-14T01:24:53.111Z,1015.40
2022-10-14T01:27:07.707Z,1015.40
2022-10-14T01:29:23.350Z,1015.40
2022-10-14T01:31:41.386Z,1015.49
2022-10-14T01:33:59.469Z,1015.45
2022-10-14T01:36:15.054Z,1015.48
2022-10-14T01:38:30.642Z,1015.44
2022-10-14T01:40:48.747Z,1015.44
2022-10-14T01:43:04.321Z,1015.43
2022-10-14T01:45:19.895Z,1015.39
2022-10-14T01:47:33.467Z,1015.34
2022-10-14T01:49:51.548Z,1015.32
2022-10-14T01:52:07.162Z,1015.32
2022-10-14T01:54:25.240Z,1015.31
2022-10-14T01:56:43.326Z,1015.29
2022-10-14T01:59:01.417Z,1015.29
2022-10-14T02:01:15.005Z,1015.27
2022-10-14T02:03:33.125Z,1015.27
2022-10-14T02:05:48.690Z,1015.29
2022-10-14T02:08:04.277Z,1015.30
2022-10-14T02:10:22.368Z,1015.31
2022-10-14T02:12:38.928Z,1015.35
2022-10-14T02:14:57.028Z,1015.35
2022-10-14T02:17:12.593Z,1015.39
2022-10-14T02:19:30.671Z,1015.42
2022-10-14T02:21:48.762Z,1015.43
2022-10-14T02:24:05.337Z,1015.41
2022-10-14T02:26:20.942Z,1015.43
2022-10-14T02:28:34.566Z,1015.46
2022-10-14T02:30:46.607Z,1015.49
2022-10-14T02:33:04.704Z,1015.49
2022-10-14T02:35:20.261Z,1015.50
2022-10-14T02:37:35.866Z,1015.46
2022-10-14T02:39:51.428Z,1015.39
2022-10-14T02:42:07.028Z,1015.41
2022-10-14T02:44:20.622Z,1015.43
2022-10-14T02:46:36.205Z,1015.33
2022-10-14T02:48:54.316Z,1015.28
2022-10-14T02:51:12.383Z,1015.27
2022-10-14T02:53:27.979Z,1015.26
2022-10-14T02:55:43.570Z,1015.18
2022-10-14T02:57:59.152Z,1015.15
2022-10-14T03:00:17.261Z,1015.13
2022-10-14T03:02:35.345Z,1015.05
2022-10-14T03:04:53.439Z,1015.05
2022-10-14T03:07:11.520Z,1015.05
2022-10-14T03:09:27.118Z,1015.05
2022-10-14T03:11:42.735Z,1015.03
2022-10-14T03:13:59.289Z,1015.03
2022-10-14T03:16:20.076Z,1015.06
2022-10-14T03:18:37.998Z,1015.04
2022-10-14T03:20:56.085Z,1015.06
2022-10-14T03:23:11.687Z,1015.10
2022-10-14T03:25:29.744Z,1015.08
2022-10-14T03:27:42.833Z,1015.09
2022-10-14T03:30:00.930Z,1015.20
2022-10-14T03:32:19.312Z,1015.16
2022-10-14T03:34:37.111Z,1015.08
2022-10-14T03:36:55.189Z,1015.07
2022-10-14T03:39:10.794Z,1015.05
2022-10-14T03:41:28.856Z,1015.08
2022-10-14T03:43:42.451Z,1015.02
2022-10-14T03:45:56.061Z,1015.02
2022-10-14T03:48:11.620Z,1015.01
2022-10-14T03:50:23.702Z,1015.02
2022-10-14T03:52:37.277Z,1014.99
2022-10-14T03:54:55.987Z,1014.97
2022-10-14T03:57:13.558Z,1014.94
2022-10-14T03:59:31.560Z,1014.93
2022-10-14T04:01:47.551Z,1014.92
2022-10-14T04:04:03.080Z,1014.97
2022-10-14T04:06:21.133Z,1015.02
2022-10-14T04:08:39.233Z,1014.94
2022-10-14T04:10:54.792Z,1014.99
2022-10-14T04:13:09.368Z,1014.93
2022-10-14T04:15:27.468Z,1014.91
2022-10-14T04:17:43.057Z,1014.91
2022-10-14T04:19:59.994Z,1014.89
2022-10-14T04:22:16.741Z,1014.81
2022-10-14T04:24:32.317Z,1014.84
2022-10-14T04:26:50.400Z,1014.82
2022-10-14T04:29:08.498Z,1014.76
2022-10-14T04:31:29.154Z,1014.82
2022-10-14T04:33:42.681Z,1014.80
2022-10-14T04:36:00.761Z,1014.77
2022-10-14T04:38:14.347Z,1014.76
2022-10-14T04:40:29.955Z,1014.74
2022-10-14T04:42:45.584Z,1014.74
2022-10-14T04:44:59.107Z,1014.70
2022-10-14T04:47:17.229Z,1014.73
2022-10-14T04:49:32.804Z,1014.73
2022-10-14T04:51:50.873Z,1014.70
2022-10-14T04:54:06.503Z,1014.70
2022-10-14T04:56:20.071Z,1014.72
2022-10-14T04:59:55.337Z,1014.71
2022-10-14T05:02:08.925Z,1014.66
2022-10-14T05:04:24.480Z,1014.67
2022-10-14T05:06:42.680Z,1014.65
2022-10-14T05:09:00.760Z,1014.69
2022-10-14T05:11:16.369Z,1014.63
2022-10-14T05:13:29.935Z,1014.62
2022-10-14T05:15:43.531Z,1014.60
2022-10-14T05:17:58.108Z,1014.58
2022-10-14T05:20:11.696Z,1014.58
2022-10-14T05:22:25.302Z,1014.62
2022-10-14T05:24:40.869Z,1014.56
2022-10-14T05:26:59.081Z,1014.56
2022-10-14T05:29:17.129Z,1014.57
2022-10-14T05:31:32.612Z,1014.53
2022-10-14T05:33:46.232Z,1014.57
2022-10-14T05:36:00.765Z,1014.54
2022-10-14T05:38:18.861Z,1014.57
2022-10-14T05:40:36.953Z,1014.56
2022-10-14T05:42:50.516Z,1014.55
2022-10-14T05:45:08.633Z,1014.61
2022-10-14T05:47:22.194Z,1014.56
2022-10-14T05:49:35.266Z,1014.55
2022-10-14T05:51:50.856Z,1014.53
2022-10-14T05:54:09.210Z,1014.52
2022-10-14T05:56:27.082Z,1014.51
2022-10-14T05:57:27.035Z,1014.49
2022-10-14T05:59:45.132Z,1014.46
2022-10-14T06:02:03.223Z,1014.49
2022-10-14T06:04:21.289Z,1014.46
2022-10-14T06:06:39.377Z,1014.40
2022-10-14T06:09:00.003Z,1014.49
2022-10-14T06:11:18.064Z,1014.50
2022-10-14T06:13:38.686Z,1014.50
2022-10-14T06:15:56.743Z,1014.48
2022-10-14T06:18:17.384Z,1014.55
2022-10-14T06:20:31.943Z,1014.51
2022-10-14T06:22:50.048Z,1014.53
2022-10-14T06:25:08.150Z,1014.53
2022-10-14T06:27:26.223Z,1014.49
2022-10-14T06:29:44.326Z,1014.45
2022-10-14T06:32:00.915Z,1014.49
2022-10-14T06:34:21.551Z,1014.52
2022-10-14T06:36:42.205Z,1014.52
2022-10-14T06:39:00.192Z,1014.48
2022-10-14T06:41:18.355Z,1014.50
2022-10-14T06:43:33.934Z,1014.55
2022-10-14T06:45:46.997Z,1014.60
2022-10-14T06:48:01.601Z,1014.62
2022-10-14T06:50:17.192Z,1014.63
2022-10-14T06:52:32.754Z,1014.68
2022-10-14T06:54:48.297Z,1014.72
2022-10-14T06:57:03.934Z,1014.78
2022-10-14T06:59:19.561Z,1014.76
2022-10-14T07:01:35.199Z,1014.74
2022-10-14T07:03:54.185Z,1014.72
2022-10-14T07:06:06.290Z,1014.67
2022-10-14T07:08:21.870Z,1014.71
2022-10-14T07:10:37.487Z,1014.69
2022-10-14T07:12:52.048Z,1014.66
2022-10-14T07:15:07.616Z,1014.71
2022-10-14T07:17:23.651Z,1014.67
2022-10-14T07:19:38.796Z,1014.69
2022-10-14T07:21:52.405Z,1014.70
2022-10-14T07:24:07.987Z,1014.68
2022-10-14T07:26:26.091Z,1014.73
2022-10-14T07:28:44.238Z,1014.74
2022-10-14T07:30:57.239Z,1014.76
2022-10-14T07:33:12.852Z,1014.75
2022-10-14T07:35:28.427Z,1014.78
2022-10-14T07:37:46.520Z,1014.73
2022-10-14T07:40:04.671Z,1014.71
2022-10-14T07:42:22.696Z,1014.71
2022-10-14T07:44:43.813Z,1014.66
2022-10-14T07:46:59.003Z,1014.73
2022-10-14T07:49:14.578Z,1014.72
2022-10-14T07:51:30.182Z,1014.65
2022-10-14T07:53:45.777Z,1014.64
2022-10-14T07:56:03.896Z,1014.68
2022-10-14T07:58:21.971Z,1014.65
2022-10-14T08:00:40.047Z,1014.67
2022-10-14T08:02:55.898Z,1014.70
2022-10-14T08:05:37.079Z,1014.69
2022-10-14T08:07:34.528Z,1014.70
2022-10-14T08:09:53.936Z,1014.68
2022-10-14T08:12:15.064Z,1014.66
2022-10-14T08:14:32.348Z,1014.66
2022-10-14T08:16:50.448Z,1014.58
2022-10-14T08:19:12.548Z,1014.65
2022-10-14T08:21:27.608Z,1014.62
2022-10-14T08:23:44.241Z,1014.64
2022-10-14T08:25:59.768Z,1014.59
2022-10-14T08:28:20.439Z,1014.52
2022-10-14T08:30:41.074Z,1014.55
2022-10-14T08:33:01.654Z,1014.55
2022-10-14T08:35:19.376Z,1014.56
2022-10-14T08:37:37.883Z,1014.56
2022-10-14T08:39:58.072Z,1014.52
2022-10-14T08:42:19.367Z,1014.50
2022-10-14T08:44:33.661Z,1014.46
2022-10-14T08:46:52.176Z,1014.39
2022-10-14T08:49:07.978Z,1014.35
2022-10-14T08:51:32.820Z,1014.37
2022-10-14T08:53:47.160Z,1014.35
2022-10-14T08:56:02.561Z,1014.38
2022-10-14T08:58:21.902Z,1014.30
2022-10-14T09:00:39.683Z,1014.29
2022-10-14T09:02:57.906Z,1014.31
2022-10-14T09:05:18.460Z,1014.32
2022-10-14T09:07:39.019Z,1014.35
2022-10-14T09:09:57.193Z,1014.34
2022-10-14T09:12:17.799Z,1014.34
2022-10-14T09:14:33.307Z,1014.32
2022-10-14T09:16:53.486Z,1014.28
2022-10-14T09:19:07.652Z,1014.21
2022-10-14T09:21:40.485Z,1014.24
2022-10-14T09:23:42.076Z,1014.21
2022-10-14T09:25:56.075Z,1014.20
2022-10-14T09:28:09.095Z,1014.18
2022-10-14T09:30:22.208Z,1014.16
2022-10-14T09:32:37.734Z,1014.14
2022-10-14T09:34:56.229Z,1014.13
2022-10-14T09:37:14.379Z,1014.15
2022-10-14T09:40:53.901Z,1014.09
2022-10-14T09:43:11.879Z,1014.06
2022-10-14T09:45:28.551Z,1013.97
2022-10-14T09:47:41.715Z,1013.90
2022-10-14T09:50:02.954Z,1013.86
2022-10-14T09:52:20.761Z,1013.83
2022-10-14T09:54:35.550Z,1013.81
2022-10-14T09:56:54.576Z,1013.84
2022-10-14T09:59:11.081Z,1013.77
2022-10-14T10:01:29.214Z,1013.82
2022-10-14T10:03:47.343Z,1013.80
2022-10-14T10:06:05.492Z,1013.81
2022-10-14T10:08:25.988Z,1013.80
2022-10-14T10:10:46.545Z,1013.83
2022-10-14T10:13:03.689Z,1013.88
2022-10-14T10:15:23.750Z,1013.86
2022-10-14T10:17:40.205Z,1013.80
2022-10-14T10:19:58.375Z,1013.81
2022-10-14T10:22:16.458Z,1013.74
2022-10-14T10:24:37.085Z,1013.76
2022-10-14T10:26:57.661Z,1013.76
2022-10-14T10:29:18.236Z,1013.81
2022-10-14T10:33:55.330Z,1013.75
2022-10-14T10:36:13.642Z,1013.72
2022-10-14T10:38:27.997Z,1013.77
2022-10-14T10:40:48.697Z,1013.76
2022-10-14T10:43:06.748Z,1013.68
2022-10-14T10:45:22.422Z,1013.69
2022-10-14T10:47:43.023Z,1013.71
2022-10-14T10:50:03.628Z,1013.70
2022-10-14T10:52:24.354Z,1013.66
2022-10-14T10:54:44.807Z,1013.68
2022-10-14T10:57:01.849Z,1013.66
2022-10-14T11:01:40.665Z,1013.64
2022-10-14T11:04:01.117Z,1013.65
2022-10-14T11:06:21.756Z,1013.59
2022-10-14T11:08:38.209Z,1013.53
2022-10-14T11:10:56.359Z,1013.50
2022-10-14T11:13:17.221Z,1013.45
2022-10-14T11:15:37.538Z,1013.45
2022-10-14T11:17:58.165Z,1013.44
2022-10-14T11:20:16.388Z,1013.35
2022-10-14T11:22:34.294Z,1013.33
2022-10-14T11:24:52.476Z,1013.25
2022-10-14T11:27:10.506Z,1013.24
2022-10-14T11:29:26.103Z,1013.24
2022-10-14T11:31:42.655Z,1013.19
2022-10-14T11:34:00.641Z,1013.18
2022-10-14T11:36:21.372Z,1013.15
2022-10-14T11:38:41.964Z,1013.19
2022-10-14T11:41:03.589Z,1013.15
2022-10-14T11:43:24.146Z,1013.12
2022-10-14T11:45:44.757Z,1013.08
2022-10-14T11:48:05.123Z,1013.08
2022-10-14T11:50:25.917Z,1013.11
2022-10-14T11:52:46.498Z,1013.07
2022-10-14T11:55:09.701Z,1013.12
2022-10-14T11:57:25.285Z,1013.09
2022-10-14T11:59:43.271Z,1013.06
2022-10-14T12:02:02.431Z,1013.02
2022-10-14T12:04:22.959Z,1013.02
2022-10-14T12:06:43.582Z,1012.98
2022-10-14T12:09:05.301Z,1012.99
2022-10-14T12:11:22.686Z,1012.96
2022-10-14T12:13:43.254Z,1012.91
2022-10-14T12:16:03.896Z,1012.88
2022-10-14T12:18:23.001Z,1012.88
2022-10-14T12:20:37.509Z,1012.88
2022-10-14T12:25:34.861Z,1012.88
2022-10-14T12:30:57.943Z,1012.79
2022-10-14T12:35:10.854Z,1012.72
2022-10-14T12:37:41.366Z,1012.70
2022-10-14T12:40:00.504Z,1012.64
2022-10-14T12:42:16.179Z,1012.61
2022-10-14T12:44:58.685Z,1012.58
2022-10-14T12:48:50.057Z,1012.52
2022-10-14T12:53:56.362Z,1012.51
2022-10-14T12:59:23.226Z,1012.50
2022-10-14T13:01:12.814Z,1012.44
2022-10-14T13:04:07.833Z,1012.40
2022-10-14T13:11:05.060Z,1012.29
2022-10-14T13:19:11.474Z,1012.23
2022-10-14T13:20:57.103Z,1012.23
2022-10-14T13:23:08.903Z,1012.21
2022-10-14T13:25:28.342Z,1012.19
2022-10-14T13:27:45.315Z,1012.21
2022-10-14T13:30:06.054Z,1012.24
2022-10-14T13:32:28.627Z,1012.23
2022-10-14T13:34:44.740Z,1012.22
2022-10-14T13:37:05.415Z,1012.20
2022-10-14T13:39:23.941Z,1012.29
2022-10-14T13:41:44.470Z,1012.28
2022-10-14T13:44:00.083Z,1012.30
2022-10-14T13:46:20.875Z,1012.26
2022-10-14T13:48:38.902Z,1012.27
2022-10-14T13:51:11.227Z,1012.27
2022-10-14T13:51:59.928Z,1012.21
2022-10-14T13:54:17.446Z,1012.23
2022-10-14T13:56:35.559Z,1012.25
2022-10-14T13:58:53.662Z,1012.26
2022-10-14T14:01:11.782Z,1012.23
2022-10-14T14:03:32.302Z,1012.25
2022-10-14T14:05:48.847Z,1012.19
2022-10-14T14:08:36.721Z,1012.22
2022-10-14T14:10:25.117Z,1012.20
2022-10-14T14:12:45.466Z,1012.22
2022-10-14T14:15:03.891Z,1012.19
2022-10-14T14:17:21.847Z,1012.20
2022-10-14T14:19:40.998Z,1012.16
2022-10-14T14:22:01.506Z,1012.12
2022-10-14T14:24:22.166Z,1012.14
2022-10-14T14:26:42.698Z,1012.11
2022-10-14T14:29:00.862Z,1012.07
2022-10-14T14:31:19.909Z,1012.05
2022-10-14T14:33:38.024Z,1012.06
2022-10-14T14:35:55.979Z,1011.99
2022-10-14T14:38:11.638Z,1011.95
2022-10-14T14:40:26.817Z,1011.91
2022-10-14T14:42:45.363Z,1011.88
2022-10-14T14:45:00.956Z,1011.78
2022-10-14T14:47:21.735Z,1011.78
2022-10-14T14:49:39.628Z,1011.72
2022-10-14T14:51:53.756Z,1011.69
2022-10-14T14:54:12.181Z,1011.70
2022-10-14T14:56:27.873Z,1011.63
2022-10-14T14:58:45.992Z,1011.66
2022-10-14T15:01:06.232Z,1011.65
2022-10-14T15:03:24.644Z,1011.66
2022-10-14T15:05:42.735Z,1011.58
2022-10-14T15:08:03.364Z,1011.56
2022-10-14T15:10:22.427Z,1011.52
2022-10-14T15:12:40.625Z,1011.50
2022-10-14T15:14:58.593Z,1011.49
2022-10-14T15:17:18.804Z,1011.43
2022-10-14T15:19:38.212Z,1011.48
2022-10-14T15:21:52.808Z,1011.49
2022-10-14T15:24:11.923Z,1011.46
2022-10-14T15:26:30.045Z,1011.43
2022-10-14T15:28:48.263Z,1011.42
2022-10-14T15:31:08.738Z,1011.38
2022-10-14T15:33:26.725Z,1011.44
2022-10-14T15:35:44.795Z,1011.47
2022-10-14T15:38:05.321Z,1011.49
2022-10-14T15:40:23.387Z,1011.49
2022-10-14T15:42:44.064Z,1011.47
2022-10-14T15:45:00.771Z,1011.50
2022-10-14T15:47:19.060Z,1011.48
2022-10-14T15:49:35.610Z,1011.47
2022-10-14T15:51:53.798Z,1011.47
2022-10-14T15:54:09.206Z,1011.45
2022-10-14T15:56:27.408Z,1011.39
2022-10-14T15:58:47.681Z,1011.42
2022-10-14T16:01:03.853Z,1011.42
2022-10-14T16:03:18.874Z,1011.38
2022-10-14T16:05:32.350Z,1011.37
2022-10-14T16:07:50.347Z,1011.36
2022-10-14T16:10:08.378Z,1011.34
2022-10-14T16:12:26.462Z,1011.35
2022-10-14T16:14:41.809Z,1011.32
2022-10-14T16:17:02.472Z,1011.35
2022-10-14T16:19:15.908Z,1011.32
2022-10-14T16:21:34.572Z,1011.34
2022-10-14T16:23:55.178Z,1011.30
2022-10-14T16:26:13.600Z,1011.27
2022-10-14T16:28:31.650Z,1011.20
2022-10-14T16:30:47.303Z,1011.20
2022-10-14T16:33:01.570Z,1011.21
2022-10-14T16:35:16.657Z,1011.22
2022-10-14T16:37:32.973Z,1011.20
2022-10-14T16:39:48.710Z,1011.19
2022-10-14T16:42:07.291Z,1011.19
2022-10-14T16:44:25.373Z,1011.13
2022-10-14T16:46:40.832Z,1011.11
2022-10-14T16:48:58.708Z,1011.16
2022-10-14T16:51:14.311Z,1011.14
2022-10-14T16:53:32.401Z,1011.14
2022-10-14T16:55:47.983Z,1011.11
2022-10-14T16:58:03.696Z,1011.11
2022-10-14T17:00:21.871Z,1011.13
2022-10-14T17:02:36.676Z,1011.08
2022-10-14T17:04:54.478Z,1011.08
2022-10-14T17:07:12.358Z,1011.07
2022-10-14T17:09:28.959Z,1011.04
2022-10-14T17:11:44.599Z,1011.03
2022-10-14T17:14:00.143Z,1011.06
2022-10-14T17:16:18.705Z,1011.01
2022-10-14T17:18:36.446Z,1011.02
2022-10-14T17:20:54.711Z,1011.01
2022-10-14T17:21:54.568Z,1011.01
2022-10-14T17:24:12.796Z,1010.98
2022-10-14T17:26:30.895Z,1011.00
2022-10-14T17:28:50.529Z,1011.01
2022-10-14T17:31:08.170Z,1010.96
2022-10-14T17:33:29.222Z,1011.00
2022-10-14T17:35:47.981Z,1011.02
2022-10-14T17:38:06.044Z,1011.01
2022-10-14T17:40:20.390Z,1011.06
2022-10-14T17:42:38.394Z,1011.07
2022-10-14T17:44:52.675Z,1011.06
2022-10-14T17:47:09.995Z,1011.05
2022-10-14T17:49:28.221Z,1011.02
2022-10-14T17:51:48.506Z,1011.01
2022-10-14T17:54:11.625Z,1010.95
2022-10-14T17:56:19.075Z,1010.95
2022-10-14T17:58:34.681Z,1010.89
2022-10-14T18:00:50.262Z,1010.84
2022-10-14T18:03:05.832Z,1010.84
2022-10-14T18:05:21.427Z,1010.80
2022-10-14T18:07:39.479Z,1010.80
2022-10-14T18:09:57.658Z,1010.80
2022-10-14T18:12:13.338Z,1010.81
2022-10-14T18:14:28.043Z,1010.82
2022-10-14T18:16:48.658Z,1010.86
2022-10-14T18:19:07.444Z,1010.83
2022-10-14T18:21:24.809Z,1010.79
2022-10-14T18:23:42.920Z,1010.83
2022-10-14T18:25:56.511Z,1010.81
2022-10-14T18:28:17.329Z,1010.83
2022-10-14T18:30:39.254Z,1010.77
2022-10-14T18:33:16.571Z,1010.78
2022-10-14T18:35:37.506Z,1010.76
2022-10-14T18:37:53.028Z,1010.76
2022-10-14T18:40:07.715Z,1010.66
2022-10-14T18:42:30.617Z,1010.58
2022-10-14T18:44:46.038Z,1010.56
2022-10-14T18:47:03.942Z,1010.54
2022-10-14T18:49:25.088Z,1010.52
2022-10-14T18:52:01.024Z,1010.51
2022-10-14T18:54:10.217Z,1010.47
2022-10-14T18:56:27.111Z,1010.45
2022-10-14T18:58:49.848Z,1010.44
2022-10-14T19:01:09.034Z,1010.34
2022-10-14T19:03:30.191Z,1010.42
2022-10-14T19:07:21.678Z,1010.39
2022-10-14T19:09:29.294Z,1010.38
2022-10-14T19:11:46.640Z,1010.44
2022-10-14T19:14:05.208Z,1010.42
2022-10-14T19:16:23.556Z,1010.45
2022-10-14T19:18:43.043Z,1010.41
2022-10-14T19:21:03.933Z,1010.38
2022-10-14T19:25:02.557Z,1010.43
2022-10-14T19:27:11.740Z,1010.35
